No particular awareness of the weather is required.    There are no Weather-warnings


Meteo18 Weather Cam more information Meteo18 Weather Cam


Thunder radar more information blitzortung!


Rain radar more information rain snow radar


Visit our other weather sites:

Template documentation
and downloads

And another site



Weather Underground History page Text

Daily Summary for May 1, 2017 Units:  English    Metric   Both
« Previous Day
Next Day »
Daily Weekly Monthly Yearly Custom
  High: Low: Average:
Temperature: 55.2 °F 43.3 °F 48.4 °F
Dew Point: 44.2 °F 37.9 °F 41.5 °F
Humidity: 93 % 53 % 78 %
Wind Speed: 19 mph 0 mph 6.8 mph
Wind Gust: 25 mph - -
Wind:- - SW
Pressure: 30 in 29.7 in -
Precipitation: 0.02 in    
Historical Graphs
 
 
Tabular Data for May 1, 2017
Time Temperature Dew Point Pressure Wind Wind Speed Wind Gust Humidity Rainfall Rate (Hourly)
00:02 44.8 °F 42.3 °F 29.8 in SW 6 mph 13 mph 91 % 0 in
00:12 44.6 °F 41.9 °F 29.7 in SW 5 mph 16 mph 90 % 0 in
00:22 44.4 °F 41.9 °F 29.7 in SSW 6 mph 16 mph 91 % 0 in
00:32 44.2 °F 41.5 °F 29.7 in South 7 mph 14 mph 90 % 0 in
00:37 44.2 °F 41.5 °F 29.7 in South 4 mph 13 mph 90 % 0 in
00:42 44.2 °F 41.7 °F 29.7 in SSW 3 mph 13 mph 91 % 0 in
00:52 44.1 °F 41.5 °F 29.7 in South 8 mph 15 mph 91 % 0 in
01:02 44.1 °F 41.5 °F 29.7 in South 6 mph 15 mph 91 % 0 in
01:12 43.9 °F 41.4 °F 29.7 in SSW 9 mph 14 mph 91 % 0 in
01:17 43.9 °F 41.4 °F 29.8 in SSE 4 mph 14 mph 91 % 0 in
01:22 43.9 °F 41.4 °F 29.8 in SSW 8 mph 13 mph 91 % 0 in
01:32 43.9 °F 41.2 °F 29.8 in SSW 6 mph 13 mph 90 % 0 in
01:42 43.9 °F 41.4 °F 29.8 in SSW 4 mph 15 mph 91 % 0 in
01:52 43.9 °F 41.2 °F 29.8 in South 10 mph 14 mph 90 % 0 in
01:57 43.9 °F 41.2 °F 29.8 in SSW 6 mph 14 mph 90 % 0 in
02:02 43.9 °F 41.2 °F 29.8 in SW 3 mph 14 mph 90 % 0 in
02:07 43.9 °F 41.2 °F 29.8 in South 7 mph 14 mph 90 % 0 in
02:12 43.7 °F 41 °F 29.8 in SSW 5 mph 14 mph 90 % 0 in
02:17 43.7 °F 41 °F 29.8 in South 6 mph 12 mph 90 % 0 in
02:22 43.9 °F 41.2 °F 29.8 in SSE 4 mph 12 mph 90 % 0 in
02:27 43.7 °F 41 °F 29.8 in SW 6 mph 10 mph 90 % 0 in
02:32 43.9 °F 41.2 °F 29.8 in SW 5 mph 10 mph 90 % 0 in
02:42 43.9 °F 41.2 °F 29.8 in SE 6 mph 12 mph 90 % 0 in
02:47 44.1 °F 41.4 °F 29.8 in SW 8 mph 13 mph 90 % 0 in
02:52 44.1 °F 41.4 °F 29.8 in South 8 mph 13 mph 90 % 0 in
03:02 44.2 °F 41.5 °F 29.8 in SW 15 mph 15 mph 90 % 0 in
03:07 44.2 °F 41.5 °F 29.8 in SSW 6 mph 15 mph 90 % 0 in
03:12 44.1 °F 41.4 °F 29.8 in SSW 12 mph 15 mph 90 % 0 in
03:17 44.1 °F 41.4 °F 29.8 in SSW 7 mph 15 mph 90 % 0 in
03:22 44.1 °F 41.4 °F 29.8 in SSW 7 mph 13 mph 90 % 0 in
03:27 44.1 °F 41.5 °F 29.8 in South 5 mph 13 mph 91 % 0 in
03:32 44.1 °F 41.5 °F 29.8 in SW 9 mph 12 mph 91 % 0 in
03:37 44.1 °F 41.5 °F 29.8 in SE 6 mph 13 mph 91 % 0 in
03:42 44.1 °F 41.5 °F 29.8 in SSW 6 mph 13 mph 91 % 0 in
03:47 44.1 °F 41.5 °F 29.8 in SSW 5 mph 13 mph 91 % 0 in
03:52 43.9 °F 41.4 °F 29.8 in SSW 8 mph 13 mph 91 % 0 in
03:57 43.9 °F 41.2 °F 29.8 in SSW 7 mph 14 mph 90 % 0 in
04:02 44.1 °F 41.4 °F 29.8 in SW 8 mph 15 mph 90 % 0 in
04:12 43.9 °F 40.8 °F 29.8 in SSW 8 mph 15 mph 89 % 0 in
04:17 43.9 °F 40.8 °F 29.8 in WSW 5 mph 13 mph 89 % 0 in
04:22 43.9 °F 40.8 °F 29.8 in SW 6 mph 13 mph 89 % 0 in
04:27 43.9 °F 40.8 °F 29.8 in SSW 6 mph 12 mph 89 % 0 in
04:37 43.9 °F 40.8 °F 29.8 in SW 5 mph 13 mph 89 % 0 in
04:42 43.9 °F 40.8 °F 29.8 in SSE 8 mph 16 mph 89 % 0 in
04:47 43.9 °F 40.8 °F 29.8 in WSW 10 mph 16 mph 89 % 0 in
04:52 43.9 °F 40.8 °F 29.8 in SW 8 mph 16 mph 89 % 0 in
04:57 43.9 °F 41.2 °F 29.8 in SW 10 mph 14 mph 90 % 0 in
05:02 43.9 °F 41.2 °F 29.8 in SW 12 mph 14 mph 90 % 0 in
05:07 43.9 °F 41.2 °F 29.8 in SW 8 mph 14 mph 90 % 0 in
05:12 43.9 °F 41.4 °F 29.8 in SW 5 mph 14 mph 91 % 0 in
05:17 43.9 °F 41.4 °F 29.8 in WSW 8 mph 15 mph 91 % 0 in
05:22 44.1 °F 41.4 °F 29.8 in SW 6 mph 15 mph 90 % 0 in
05:27 43.9 °F 41.2 °F 29.8 in WSW 7 mph 15 mph 90 % 0 in
05:32 43.9 °F 41.2 °F 29.8 in West 9 mph 15 mph 90 % 0 in
05:37 43.7 °F 41.2 °F 29.8 in SSW 6 mph 14 mph 91 % 0 in
05:42 43.5 °F 41 °F 29.8 in SW 10 mph 14 mph 91 % 0 in
05:47 43.5 °F 41 °F 29.8 in SW 6 mph 16 mph 91 % 0 in
05:57 43.5 °F 41.4 °F 29.8 in SW 5 mph 14 mph 92 % 0 in
06:02 43.3 °F 41.2 °F 29.8 in SW 6 mph 14 mph 92 % 0 in
06:07 43.5 °F 41.4 °F 29.8 in SW 9 mph 15 mph 92 % 0 in
06:12 43.5 °F 41.4 °F 29.9 in SW 6 mph 15 mph 92 % 0 in
06:17 43.5 °F 41.4 °F 29.9 in WSW 7 mph 14 mph 92 % 0 in
06:22 43.5 °F 41.4 °F 29.9 in SW 8 mph 14 mph 92 % 0 in
06:27 43.5 °F 41.7 °F 29.9 in SSW 5 mph 14 mph 93 % 0 in
06:32 43.7 °F 41.5 °F 29.9 in WSW 4 mph 14 mph 92 % 0 in
06:37 43.7 °F 41.5 °F 29.9 in WSW 9 mph 14 mph 92 % 0 in
06:42 43.7 °F 41.5 °F 29.9 in SW 7 mph 12 mph 92 % 0 in
06:47 43.9 °F 41.7 °F 29.9 in SW 8 mph 12 mph 92 % 0 in
06:52 43.9 °F 41.7 °F 29.9 in WSW 9 mph 15 mph 92 % 0 in
06:57 43.9 °F 41.7 °F 29.9 in SW 7 mph 16 mph 92 % 0 in
07:02 44.1 °F 41.9 °F 29.9 in WSW 10 mph 16 mph 92 % 0 in
07:12 44.1 °F 41.9 °F 29.9 in SW 8 mph 13 mph 92 % 0 in
07:17 44.1 °F 41.9 °F 29.9 in WSW 10 mph 12 mph 92 % 0 in
07:27 44.2 °F 42.1 °F 29.9 in SW 9 mph 13 mph 92 % 0 in
07:32 44.2 °F 42.1 °F 29.9 in WSW 10 mph 13 mph 92 % 0 in
07:37 44.2 °F 41.7 °F 29.9 in SW 8 mph 15 mph 91 % 0 in
07:42 44.2 °F 41.7 °F 29.9 in SW 9 mph 15 mph 91 % 0 in
07:47 44.4 °F 41.9 °F 29.9 in SW 6 mph 15 mph 91 % 0 in
07:52 44.4 °F 41.9 °F 29.9 in WSW 4 mph 14 mph 91 % 0 in
07:57 44.4 °F 41.9 °F 29.9 in SW 3 mph 13 mph 91 % 0 in
08:02 44.4 °F 41.9 °F 29.9 in WSW 4 mph 13 mph 91 % 0 in
08:12 44.4 °F 41.9 °F 29.9 in WSW 4 mph 13 mph 91 % 0 in
08:17 44.6 °F 42.1 °F 29.9 in SW 3 mph 13 mph 91 % 0 in
08:22 44.8 °F 42.1 °F 29.9 in SW 12 mph 13 mph 90 % 0 in
08:27 44.8 °F 42.1 °F 29.9 in WSW 5 mph 15 mph 90 % 0 in
08:32 44.8 °F 42.1 °F 29.9 in SW 8 mph 15 mph 90 % 0 in
08:37 44.8 °F 42.1 °F 29.9 in SW 6 mph 15 mph 90 % 0 in
08:42 45 °F 42.3 °F 29.9 in SW 7 mph 15 mph 90 % 0 in
08:47 45 °F 42.3 °F 29.9 in WSW 4 mph 14 mph 90 % 0 in
08:52 45.1 °F 42.1 °F 29.9 in SW 14 mph 15 mph 89 % 0 in
08:57 45.3 °F 42.3 °F 29.9 in SW 3 mph 15 mph 89 % 0 in
09:02 45.3 °F 41.9 °F 29.9 in WSW 13 mph 15 mph 88 % 0 in
09:07 45.5 °F 42.1 °F 29.9 in West 5 mph 20 mph 88 % 0 in
09:12 45.7 °F 42.3 °F 29.9 in SW 4 mph 20 mph 88 % 0 in
09:17 46 °F 42.4 °F 29.9 in WSW 6 mph 15 mph 87 % 0 in
09:22 46.2 °F 42.6 °F 29.9 in WSW 4 mph 15 mph 87 % 0 in
09:32 46.8 °F 42.4 °F 29.9 in WSW 4 mph 12 mph 85 % 0 in
09:37 47.1 °F 42.8 °F 29.9 in SW 9 mph 12 mph 85 % 0 in
09:42 47.8 °F 43.2 °F 29.9 in SW 7 mph 14 mph 84 % 0 in
09:47 48 °F 43.3 °F 29.9 in SW 10 mph 14 mph 84 % 0 in
09:57 48.6 °F 43.7 °F 29.9 in SSW 9 mph 19 mph 83 % 0 in
10:02 48.7 °F 43.9 °F 29.9 in SW 2 mph 19 mph 83 % 0 in
10:12 49.3 °F 43.3 °F 29.9 in SW 4 mph 16 mph 80 % 0 in
10:17 49.3 °F 42.8 °F 29.9 in West 13 mph 16 mph 78 % 0 in
10:22 48.7 °F 41.9 °F 29.9 in West 7 mph 15 mph 77 % 0 in
10:32 49.3 °F 43 °F 29.9 in West 5 mph 21 mph 79 % 0 in
10:37 50 °F 44.1 °F 29.9 in WSW 9 mph 16 mph 80 % 0 in
10:42 50.5 °F 43.9 °F 29.9 in SW 10 mph 16 mph 78 % 0 in
10:52 50.9 °F 43.5 °F 29.9 in SW 7 mph 17 mph 76 % 0 in
10:57 50.7 °F 42.8 °F 29.9 in WSW 7 mph 18 mph 74 % 0 in
11:02 51.1 °F 42.4 °F 29.9 in WSW 10 mph 18 mph 72 % 0 in
11:07 51.1 °F 42.1 °F 29.9 in WNW 6 mph 18 mph 71 % 0 in
11:12 51.6 °F 43.3 °F 29.9 in WSW 9 mph 18 mph 73 % 0 in
11:17 51.6 °F 43 °F 29.9 in West 8 mph 20 mph 72 % 0 in
11:22 51.6 °F 41.7 °F 29.9 in WSW 16 mph 20 mph 69 % 0 in
11:27 51.6 °F 42.1 °F 29.9 in SW 11 mph 20 mph 70 % 0 in
11:32 51.6 °F 41.4 °F 29.9 in West 6 mph 20 mph 68 % 0 in
11:42 52.2 °F 41.2 °F 29.9 in West 11 mph 20 mph 66 % 0 in
11:52 52.7 °F 40.8 °F 29.9 in SW 19 mph 20 mph 64 % 0 in
11:57 52.5 °F 41.5 °F 29.9 in West 10 mph 23 mph 66 % 0 in
12:02 53.1 °F 42.1 °F 29.9 in WSW 17 mph 24 mph 66 % 0 in
12:12 53.2 °F 43 °F 29.9 in WSW 6 mph 24 mph 68 % 0 in
12:17 53.8 °F 43.2 °F 29.9 in West 13 mph 24 mph 67 % 0 in
12:22 53.2 °F 41.7 °F 29.9 in WSW 14 mph 23 mph 65 % 0 in
12:27 53.4 °F 41.5 °F 29.9 in West 14 mph 20 mph 64 % 0 in
12:32 53.6 °F 41.7 °F 29.9 in WSW 18 mph 20 mph 64 % 0 in
12:37 53.4 °F 41.5 °F 29.9 in West 9 mph 20 mph 64 % 0 in
12:42 54.1 °F 41.9 °F 29.9 in WNW 11 mph 19 mph 63 % 0 in
12:47 53.8 °F 41 °F 29.9 in WSW 7 mph 22 mph 62 % 0 in
12:52 54 °F 42.4 °F 29.9 in West 12 mph 22 mph 65 % 0 in
12:57 54.1 °F 42.3 °F 29.9 in West 9 mph 22 mph 64 % 0 in
13:02 53.8 °F 41 °F 29.9 in SW 5 mph 17 mph 62 % 0 in
13:12 53.8 °F 42.6 °F 29.9 in West 5 mph 19 mph 66 % 0 in
13:17 54 °F 42.1 °F 30 in West 9 mph 19 mph 64 % 0 in
13:22 54.7 °F 44.2 °F 30 in WSW 9 mph 17 mph 68 % 0 in
13:32 54 °F 41.7 °F 30 in West 9 mph 18 mph 63 % 0 in
13:37 53.8 °F 41.5 °F 30 in West 14 mph 18 mph 63 % 0 in
13:42 54 °F 42.1 °F 30 in WSW 8 mph 17 mph 64 % 0 in
13:52 54.7 °F 39.7 °F 30 in West 9 mph 19 mph 57 % 0 in
13:57 55.2 °F 41.5 °F 30 in WSW 12 mph 19 mph 60 % 0 in
14:07 54 °F 42.4 °F 30 in WSW 13 mph 20 mph 65 % 0 in
14:17 51.1 °F 42.8 °F 30 in West 7 mph 24 mph 73 % 0.01 in
14:27 52 °F 43.5 °F 30 in WSW 8 mph 17 mph 73 % 0.01 in
14:32 52.5 °F 43.3 °F 30 in West 12 mph 19 mph 71 % 0.02 in
14:42 52.7 °F 42.1 °F 30 in West 9 mph 25 mph 67 % 0.02 in
14:47 53.1 °F 41.5 °F 30 in SW 8 mph 25 mph 65 % 0.02 in
14:52 53.6 °F 40.8 °F 30 in WSW 8 mph 25 mph 62 % 0.02 in
14:57 53.8 °F 41.5 °F 30 in WSW 5 mph 19 mph 63 % 0.02 in
15:02 54.1 °F 41 °F 30 in SW 10 mph 19 mph 61 % 0.02 in
15:12 54.7 °F 40.6 °F 30 in SSW 10 mph 18 mph 59 % 0.01 in
15:17 55 °F 41.4 °F 30 in WSW 15 mph 18 mph 60 % 0.01 in
15:22 54.9 °F 42.1 °F 30 in SW 17 mph 20 mph 62 % 0.01 in
15:32 54 °F 40.8 °F 30 in SSW 6 mph 21 mph 61 % 0 in
15:42 55 °F 41 °F 30 in WSW 14 mph 18 mph 59 % 0 in
15:52 54.5 °F 43 °F 30 in WNW 14 mph 21 mph 65 % 0 in
15:57 52.9 °F 41.9 °F 30 in West 8 mph 21 mph 66 % 0 in
16:02 52.2 °F 42.3 °F 30 in West 11 mph 21 mph 69 % 0 in
16:12 52 °F 41.4 °F 30 in West 6 mph 20 mph 67 % 0 in
16:17 52.3 °F 41.4 °F 30 in West 6 mph 19 mph 66 % 0 in
16:22 52.9 °F 41.4 °F 30 in West 10 mph 17 mph 65 % 0 in
16:32 53.8 °F 41.5 °F 30 in SW 3 mph 16 mph 63 % 0 in
16:37 54.7 °F 40.6 °F 30 in West 5 mph 16 mph 59 % 0 in
16:42 54.9 °F 39.9 °F 30 in West 9 mph 20 mph 57 % 0 in
16:47 54.9 °F 39.9 °F 30 in SW 8 mph 20 mph 57 % 0 in
16:57 55.2 °F 41.2 °F 30 in SW 19 mph 19 mph 59 % 0 in
17:02 54.9 °F 41.2 °F 30 in SW 9 mph 19 mph 60 % 0 in
17:12 54 °F 41.2 °F 30 in WSW 5 mph 19 mph 62 % 0 in
17:17 54.1 °F 41 °F 30 in SW 6 mph 19 mph 61 % 0 in
17:22 54.3 °F 39.9 °F 30 in WSW 9 mph 19 mph 58 % 0 in
17:27 54.5 °F 38.7 °F 30 in WSW 10 mph 17 mph 55 % 0 in
17:32 54.7 °F 40.3 °F 30 in WSW 9 mph 17 mph 58 % 0 in
17:37 54.7 °F 39.4 °F 30 in WNW 10 mph 17 mph 56 % 0 in
17:42 54.9 °F 39.4 °F 30 in West 8 mph 13 mph 56 % 0 in
17:47 55 °F 39.6 °F 30 in WNW 3 mph 14 mph 56 % 0 in
17:52 55 °F 39.6 °F 30 in West 5 mph 14 mph 56 % 0 in
18:02 54.7 °F 38.8 °F 30 in SW 8 mph 10 mph 55 % 0 in
18:12 54.9 °F 39 °F 30 in West 8 mph 13 mph 55 % 0 in
18:17 54.9 °F 39.4 °F 30 in SW 7 mph 13 mph 56 % 0 in
18:22 55 °F 40.5 °F 30 in SW 4 mph 13 mph 58 % 0 in
18:27 55 °F 41.9 °F 30 in WSW 6 mph 13 mph 61 % 0 in
18:32 55 °F 41.9 °F 30 in WSW 5 mph 15 mph 61 % 0 in
18:37 55.2 °F 38.8 °F 30 in WSW 9 mph 15 mph 54 % 0 in
18:42 55.2 °F 38.3 °F 30 in SW 9 mph 16 mph 53 % 0 in
18:47 55.2 °F 38.8 °F 30 in WSW 11 mph 19 mph 54 % 0 in
18:52 55 °F 38.7 °F 30 in SW 11 mph 19 mph 54 % 0 in
19:02 54.7 °F 37.9 °F 30 in WSW 10 mph 16 mph 53 % 0 in
19:12 54.5 °F 39.6 °F 30 in SW 10 mph 15 mph 57 % 0 in
19:17 54.3 °F 39.9 °F 30 in SW 7 mph 14 mph 58 % 0 in
19:22 54.1 °F 40.1 °F 30 in WSW 6 mph 14 mph 59 % 0 in
19:32 53.6 °F 40.5 °F 30 in SW 3 mph 12 mph 61 % 0 in
19:42 53.8 °F 41 °F 30 in WSW 7 mph 8 mph 62 % 0 in
19:47 53.4 °F 41.2 °F 30 in SW 5 mph 8 mph 63 % 0 in
19:57 52.5 °F 41.2 °F 30 in SSW 3 mph 9 mph 65 % 0 in
20:02 52 °F 41.4 °F 30 in South 2 mph 9 mph 67 % 0 in
20:07 51.6 °F 41 °F 30 in SW 6 mph 9 mph 67 % 0 in
20:12 51.4 °F 41.5 °F 30 in SW 2 mph 9 mph 69 % 0 in
20:17 51.1 °F 41.2 °F 30 in SW 3 mph 9 mph 69 % 0 in
20:22 50.5 °F 41.5 °F 30 in SSW 3 mph 8 mph 71 % 0 in
20:27 50.2 °F 41.5 °F 30 in South 1 mph 6 mph 72 % 0 in
20:32 49.8 °F 41.5 °F 30 in SSW 2 mph 6 mph 73 % 0 in
20:37 49.6 °F 41.7 °F 30 in SW 2 mph 5 mph 74 % 0 in
20:42 49.5 °F 41.5 °F 30 in SSW 2 mph 5 mph 74 % 0 in
20:47 49.3 °F 41.7 °F 30 in SW 3 mph 5 mph 75 % 0 in
20:52 48.9 °F 41.7 °F 30 in SSW 2 mph 6 mph 76 % 0 in
20:57 48.7 °F 41.9 °F 30 in SSW 1 mph 6 mph 77 % 0 in
21:02 48.6 °F 42.1 °F 30 in Calm   5 mph 78 % 0 in
21:12 48.4 °F 41.9 °F 30 in SW 1 mph 3 mph 78 % 0 in
21:17 48.2 °F 42.1 °F 30 in Calm   2 mph 79 % 0 in
21:22 48 °F 41.9 °F 30 in Calm   2 mph 79 % 0 in
21:32 47.8 °F 41.7 °F 30 in SSE 1 mph 2 mph 79 % 0 in
21:37 47.7 °F 41.5 °F 30 in Calm   2 mph 79 % 0 in
21:42 47.5 °F 41.5 °F 30 in South 1 mph 2 mph 80 % 0 in
21:47 47.1 °F 41.4 °F 30 in SSW 1 mph 2 mph 80 % 0 in
21:52 46.9 °F 41.7 °F 30 in Calm   2 mph 82 % 0 in
21:57 46.6 °F 41.7 °F 30 in Calm   2 mph 83 % 0 in
22:02 46.4 °F 41.5 °F 30 in SW 1 mph 2 mph 83 % 0 in
22:12 46 °F 40.8 °F 30 in South 1 mph 2 mph 82 % 0 in
22:17 45.9 °F 41 °F 30 in Calm   2 mph 83 % 0 in
22:22 45.7 °F 40.8 °F 30 in Calm   2 mph 83 % 0 in
22:27 45.3 °F 40.5 °F 30 in Calm   2 mph 83 % 0 in
22:32 45.1 °F 40.6 °F 30 in SSW 1 mph 2 mph 84 % 0 in
22:42 45.3 °F 41 °F 30 in South 2 mph 5 mph 85 % 0 in
22:47 45.3 °F 41.4 °F 30 in SSW 2 mph 5 mph 86 % 0 in
22:57 45.3 °F 41 °F 30 in SSW 1 mph 4 mph 85 % 0 in
23:02 45.3 °F 41.4 °F 30 in SSW 1 mph 4 mph 86 % 0 in
23:07 45.3 °F 41.4 °F 30 in SSW 2 mph 4 mph 86 % 0 in
23:12 45.5 °F 41.9 °F 30 in SW 3 mph 6 mph 87 % 0 in
23:17 45.7 °F 42.1 °F 30 in SW 4 mph 6 mph 87 % 0 in
23:22 45.9 °F 41.9 °F 30 in SW 3 mph 7 mph 86 % 0 in
23:32 46.2 °F 42.3 °F 30 in SW 2 mph 5 mph 86 % 0 in
23:42 46.6 °F 42.3 °F 30 in SSW 2 mph 5 mph 85 % 0 in
23:47 46.6 °F 42.3 °F 30 in SW 4 mph 5 mph 85 % 0 in
23:52 46.6 °F 42.3 °F 30 in SW 1 mph 5 mph 85 % 0 in
Meteo18
Compliments of Weather Underground - 4 mb

Script developed by  Jim McMurry - jmcmurry@mwt.net Adapted for the template by  Wim van der Kuil - Leuven-Template.eu

You find our weather info also at:

European Weather Network

Weather Underground

Equipment we use:

Weather-station
Davis Vue

Weather-program
Meteohub

Weather-server
Raspberry PI 2 B+

Provider
1 and 1

Davis Vue

Meteohub

Raspberry PI 2 B+

1 and 1